createdAt,value
2017-11-14T00:00:48.733Z,95.87
2017-11-14T00:03:17.777Z,96.06
2017-11-14T00:05:47.292Z,96.18
2017-11-14T00:08:16.371Z,96.33
2017-11-14T00:10:45.427Z,96.21
2017-11-14T00:13:14.467Z,96.26
2017-11-14T00:15:43.533Z,96.08
2017-11-14T00:18:12.607Z,95.77
2017-11-14T00:20:41.653Z,95.97
2017-11-14T00:23:10.683Z,95.93
2017-11-14T00:25:39.761Z,95.64
2017-11-14T00:28:08.789Z,95.74
2017-11-14T00:30:37.852Z,96.23
2017-11-14T00:33:06.894Z,95.67
2017-11-14T00:35:35.947Z,95.17
2017-11-14T00:38:04.995Z,95.38
2017-11-14T00:40:34.031Z,95.28
2017-11-14T00:43:03.181Z,95.64
2017-11-14T00:45:32.249Z,95.46
2017-11-14T00:48:02.268Z,95.32
2017-11-14T00:53:06.562Z,95.44
2017-11-14T00:55:35.618Z,94.49
2017-11-14T00:58:04.660Z,94.57
2017-11-14T01:00:33.712Z,94.42
2017-11-14T01:03:02.760Z,95.12
2017-11-14T01:05:31.825Z,95.35
2017-11-14T01:08:02.095Z,95.86
2017-11-14T01:10:31.155Z,95.85
2017-11-14T01:13:00.231Z,95.82
2017-11-14T01:15:29.284Z,95.82
2017-11-14T01:17:58.349Z,96.04
2017-11-14T01:20:29.374Z,96.07
2017-11-14T01:22:58.449Z,96.47
2017-11-14T01:25:27.495Z,97.33
2017-11-14T01:27:56.631Z,98.10
2017-11-14T01:30:25.695Z,98.20
2017-11-14T01:32:54.772Z,98.07
2017-11-14T01:35:27.584Z,97.54
2017-11-14T01:37:56.644Z,97.58
2017-11-14T01:40:25.699Z,96.57
2017-11-14T01:42:54.844Z,97.27
2017-11-14T01:45:24.874Z,97.59
2017-11-14T01:47:53.931Z,97.88
2017-11-14T01:50:22.987Z,97.16
2017-11-14T01:52:52.047Z,96.37
2017-11-14T01:55:21.127Z,97.39
2017-11-14T01:57:50.179Z,97.89
2017-11-14T02:00:38.018Z,98.15
2017-11-14T02:03:07.081Z,97.83
2017-11-14T02:05:36.207Z,97.66
2017-11-14T02:08:05.296Z,98.29
2017-11-14T02:10:41.278Z,98.88
2017-11-14T02:15:47.624Z,98.23
2017-11-14T02:20:52.843Z,98.10
2017-11-14T02:23:26.691Z,97.79
2017-11-14T02:26:01.135Z,97.93
2017-11-14T02:28:31.249Z,97.85
2017-11-14T02:31:00.328Z,97.26
2017-11-14T02:33:30.378Z,97.97
2017-11-14T02:35:59.438Z,97.87
2017-11-14T02:41:04.414Z,96.73
2017-11-14T02:43:41.067Z,97.22
2017-11-14T02:46:10.151Z,97.72
2017-11-14T02:48:39.211Z,97.38
2017-11-14T02:51:10.244Z,97.11
2017-11-14T02:53:39.304Z,97.45
2017-11-14T02:56:08.351Z,97.61
2017-11-14T02:58:39.356Z,97.20
2017-11-14T03:01:08.416Z,96.56
2017-11-14T03:03:39.372Z,97.61
2017-11-14T03:06:08.438Z,98.06
2017-11-14T03:08:39.475Z,98.00
2017-11-14T03:11:09.476Z,98.86
2017-11-14T03:13:38.531Z,99.08
2017-11-14T03:16:09.525Z,99.29
2017-11-14T03:18:39.536Z,98.91
2017-11-14T03:21:08.584Z,98.74
2017-11-14T03:23:37.651Z,98.49
2017-11-14T03:26:07.651Z,98.35
2017-11-14T03:28:36.759Z,98.62
2017-11-14T03:31:05.813Z,98.57
2017-11-14T03:33:34.860Z,98.83
2017-11-14T03:36:03.948Z,98.61
2017-11-14T03:38:33.013Z,98.64
2017-11-14T03:41:02.064Z,98.52
2017-11-14T03:43:32.106Z,98.70
2017-11-14T03:46:02.097Z,98.45
2017-11-14T03:48:32.120Z,98.35
2017-11-14T03:51:02.148Z,98.45
2017-11-14T03:53:32.231Z,98.56
2017-11-14T03:56:01.279Z,99.00
2017-11-14T04:01:06.615Z,98.44
2017-11-14T04:03:35.676Z,98.64
2017-11-14T04:06:04.729Z,98.60
2017-11-14T04:11:11.099Z,99.41
2017-11-14T04:13:40.155Z,99.70
2017-11-14T04:16:09.196Z,99.83
2017-11-14T04:21:13.504Z,99.50
2017-11-14T04:23:42.588Z,99.65
2017-11-14T04:26:12.601Z,99.73
2017-11-14T04:28:41.687Z,100.00
2017-11-14T04:31:13.834Z,100.00
2017-11-14T04:33:42.884Z,99.48
2017-11-14T04:36:30.737Z,99.44
2017-11-14T04:38:59.814Z,99.04
2017-11-14T04:41:28.874Z,98.88
2017-11-14T04:43:57.923Z,99.16
2017-11-14T04:46:27.160Z,98.97
2017-11-14T04:48:56.344Z,98.88
2017-11-14T04:51:26.401Z,98.96
2017-11-14T04:53:55.462Z,98.88
2017-11-14T04:56:24.509Z,98.69
2017-11-14T04:58:53.588Z,98.32
2017-11-14T05:01:32.571Z,98.30
2017-11-14T05:04:04.691Z,98.61
2017-11-14T05:09:17.439Z,99.33
2017-11-14T05:11:50.073Z,99.28
2017-11-14T05:14:19.138Z,99.22
2017-11-14T05:16:48.190Z,99.06
2017-11-14T05:19:19.232Z,99.03
2017-11-14T05:21:48.300Z,98.82
2017-11-14T05:24:17.356Z,98.85
2017-11-14T05:26:47.383Z,98.30
2017-11-14T05:29:17.476Z,98.68
2017-11-14T05:31:46.528Z,98.96
2017-11-14T05:34:15.608Z,99.18
2017-11-14T05:36:44.673Z,98.94
2017-11-14T05:39:13.761Z,98.72
2017-11-14T05:41:42.835Z,98.34
2017-11-14T05:44:11.935Z,98.30
2017-11-14T05:46:41.020Z,98.30
2017-11-14T05:49:10.081Z,98.61
2017-11-14T05:51:39.163Z,98.53
2017-11-14T05:56:45.493Z,97.80
2017-11-14T05:59:15.575Z,98.21
2017-11-14T06:01:44.663Z,98.28
2017-11-14T06:06:53.512Z,98.88
2017-11-14T06:09:23.532Z,98.38
2017-11-14T06:11:52.587Z,98.19
2017-11-14T06:14:21.640Z,97.88
2017-11-14T06:16:50.692Z,97.87
2017-11-14T06:19:23.709Z,98.36
2017-11-14T06:21:52.797Z,98.85
2017-11-14T06:24:21.987Z,98.90
2017-11-14T06:26:51.035Z,98.51
2017-11-14T06:29:20.365Z,98.32
2017-11-14T06:31:50.465Z,98.02
2017-11-14T06:36:58.295Z,97.51
2017-11-14T06:39:31.475Z,97.69
2017-11-14T06:44:39.692Z,98.23
2017-11-14T06:47:13.763Z,98.02
2017-11-14T06:49:43.055Z,98.27
2017-11-14T06:52:15.775Z,98.09
2017-11-14T06:54:44.972Z,98.38
2017-11-14T06:57:14.071Z,98.40
2017-11-14T06:59:43.149Z,98.59
2017-11-14T07:02:12.196Z,98.76
2017-11-14T07:04:41.260Z,98.28
2017-11-14T07:07:10.318Z,98.51
2017-11-14T07:09:39.375Z,98.40
2017-11-14T07:12:08.708Z,98.49
2017-11-14T07:14:40.021Z,98.03
2017-11-14T07:17:14.068Z,98.33
2017-11-14T07:19:44.026Z,98.43
2017-11-14T07:22:13.091Z,98.07
2017-11-14T07:24:43.136Z,97.80
2017-11-14T07:27:13.204Z,98.38
2017-11-14T07:29:42.271Z,97.91
2017-11-14T07:32:11.336Z,97.24
2017-11-14T07:34:40.389Z,97.43
2017-11-14T07:39:45.632Z,97.58
2017-11-14T07:44:49.947Z,97.04
2017-11-14T07:50:01.143Z,96.80
2017-11-14T07:55:13.855Z,96.21
2017-11-14T07:57:43.839Z,95.64
2017-11-14T08:02:48.156Z,95.55
2017-11-14T08:05:17.784Z,94.23
2017-11-14T08:07:47.088Z,94.93
2017-11-14T08:10:21.511Z,94.31
2017-11-14T08:12:51.059Z,94.12
2017-11-14T08:17:58.113Z,94.33
2017-11-14T08:20:29.378Z,93.52
2017-11-14T08:23:02.370Z,92.79
2017-11-14T08:25:31.472Z,94.19
2017-11-14T08:28:04.241Z,93.42
2017-11-14T08:30:33.285Z,92.20
2017-11-14T08:33:02.341Z,92.41
2017-11-14T08:35:31.442Z,93.32
2017-11-14T08:38:03.442Z,92.36
2017-11-14T08:40:34.472Z,92.33
2017-11-14T08:43:03.567Z,92.29
2017-11-14T08:45:32.666Z,91.25
2017-11-14T08:48:02.711Z,90.16
2017-11-14T08:50:31.897Z,90.98
2017-11-14T08:53:01.915Z,90.45
2017-11-14T08:55:30.961Z,89.63
2017-11-14T08:58:00.055Z,89.22
2017-11-14T09:00:29.098Z,91.16
2017-11-14T09:02:59.151Z,89.62
2017-11-14T09:05:33.122Z,89.79
2017-11-14T09:08:03.658Z,91.22
2017-11-14T09:10:32.702Z,91.00
2017-11-14T09:13:01.764Z,88.33
2017-11-14T09:15:30.829Z,90.22
2017-11-14T09:18:00.072Z,90.00
2017-11-14T09:20:29.120Z,88.52
2017-11-14T09:22:58.164Z,86.62
2017-11-14T09:25:27.211Z,86.87
2017-11-14T09:27:56.265Z,87.20
2017-11-14T09:30:25.313Z,86.68
2017-11-14T09:32:54.383Z,87.16
2017-11-14T09:35:23.425Z,85.11
2017-11-14T09:37:52.482Z,85.70
2017-11-14T09:40:21.527Z,83.31
2017-11-14T09:45:27.000Z,83.59
2017-11-14T09:47:56.018Z,83.02
2017-11-14T09:50:25.867Z,84.55
2017-11-14T09:52:55.849Z,81.33
2017-11-14T09:55:24.909Z,81.57
2017-11-14T09:57:54.349Z,81.00
2017-11-14T10:00:25.231Z,84.72
2017-11-14T10:02:54.297Z,83.65
2017-11-14T10:05:23.704Z,82.02
2017-11-14T10:07:55.237Z,83.77
2017-11-14T10:10:26.257Z,83.75
2017-11-14T10:12:56.291Z,80.89
2017-11-14T10:15:25.349Z,81.95
2017-11-14T10:17:54.480Z,83.59
2017-11-14T10:20:23.524Z,80.52
2017-11-14T10:22:53.445Z,81.13
2017-11-14T10:25:22.507Z,76.99
2017-11-14T10:30:28.200Z,79.38
2017-11-14T10:32:58.537Z,80.12
2017-11-14T10:35:27.977Z,79.75
2017-11-14T10:37:57.152Z,78.46
2017-11-14T10:40:26.237Z,79.54
2017-11-14T10:42:55.264Z,79.31
2017-11-14T10:45:24.718Z,78.88
2017-11-14T10:47:57.059Z,79.11
2017-11-14T10:50:26.124Z,77.15
2017-11-14T10:52:55.180Z,76.94
2017-11-14T10:55:24.785Z,75.70
2017-11-14T10:57:54.727Z,77.47
2017-11-14T11:00:32.860Z,72.47
2017-11-14T11:03:02.956Z,77.66
2017-11-14T11:05:32.037Z,72.80
2017-11-14T11:08:01.108Z,78.13
2017-11-14T11:10:31.361Z,77.58
2017-11-14T11:13:04.973Z,77.22
2017-11-14T11:15:36.794Z,72.53
2017-11-14T11:18:05.966Z,65.28
2017-11-14T11:20:36.020Z,72.68
2017-11-14T11:25:40.279Z,55.13
2017-11-14T11:28:10.576Z,49.55
2017-11-14T11:30:41.427Z,46.63
2017-11-14T11:35:46.075Z,54.61
2017-11-14T11:38:15.116Z,64.19
2017-11-14T11:40:44.163Z,57.65
2017-11-14T11:45:52.783Z,60.80
2017-11-14T11:48:21.813Z,61.82
2017-11-14T11:50:51.941Z,58.33
2017-11-14T11:53:20.989Z,55.62
2017-11-14T11:55:50.101Z,49.54
2017-11-14T11:58:19.125Z,54.57
2017-11-14T12:00:52.198Z,55.10
2017-11-14T12:03:21.380Z,50.01
2017-11-14T12:05:50.413Z,54.81
2017-11-14T12:08:21.207Z,53.88
2017-11-14T12:10:50.294Z,53.90
2017-11-14T12:13:19.394Z,54.74
2017-11-14T12:15:49.639Z,53.13
2017-11-14T12:18:19.895Z,51.56
2017-11-14T12:20:48.931Z,54.33
2017-11-14T12:23:17.988Z,46.69
2017-11-14T12:28:22.372Z,53.68
2017-11-14T12:30:55.604Z,52.85
2017-11-14T12:33:24.762Z,53.11
2017-11-14T12:35:53.824Z,50.05
2017-11-14T12:38:23.635Z,50.57
2017-11-14T12:43:28.344Z,48.37
2017-11-14T12:46:02.555Z,47.03
2017-11-14T12:48:32.511Z,52.29
2017-11-14T12:51:03.857Z,51.18
2017-11-14T12:53:32.884Z,53.05
2017-11-14T12:56:05.388Z,49.87
2017-11-14T12:58:34.452Z,47.62
2017-11-14T13:01:04.708Z,43.38
2017-11-14T13:03:35.920Z,38.18
2017-11-14T13:08:40.204Z,43.40
2017-11-14T13:11:10.273Z,42.10
2017-11-14T13:13:41.502Z,42.55
2017-11-14T13:16:10.594Z,48.43
2017-11-14T13:18:40.680Z,51.40
2017-11-14T13:23:46.057Z,48.96
2017-11-14T13:26:15.091Z,50.13
2017-11-14T13:28:44.167Z,47.15
2017-11-14T13:31:16.642Z,44.00
2017-11-14T13:36:27.581Z,41.62
2017-11-14T13:41:32.818Z,44.49
2017-11-14T13:44:01.944Z,46.14
2017-11-14T13:46:34.034Z,50.89
2017-11-14T13:49:04.279Z,52.71
2017-11-14T13:51:33.524Z,51.28
2017-11-14T13:54:04.824Z,50.94
2017-11-14T13:56:37.240Z,48.02
2017-11-14T13:59:06.270Z,46.41
2017-11-14T14:01:44.492Z,45.09
2017-11-14T14:04:14.696Z,52.39
2017-11-14T14:06:43.794Z,48.02
2017-11-14T14:11:51.557Z,48.22
2017-11-14T14:14:22.033Z,47.98
2017-11-14T14:16:51.174Z,49.42
2017-11-14T14:19:21.572Z,51.86
2017-11-14T14:21:50.624Z,53.67
2017-11-14T14:24:20.259Z,56.01
2017-11-14T14:29:31.012Z,58.36
2017-11-14T14:32:03.098Z,60.24
2017-11-14T14:34:34.559Z,60.66
2017-11-14T14:37:05.426Z,63.83
2017-11-14T14:39:35.488Z,64.56
2017-11-14T14:42:04.524Z,67.92
2017-11-14T14:44:34.707Z,68.59
2017-11-14T14:47:07.511Z,70.32
2017-11-14T14:49:39.255Z,71.09
2017-11-14T14:52:08.291Z,70.45
2017-11-14T14:57:12.579Z,69.26
2017-11-14T15:02:17.292Z,70.62
2017-11-14T15:04:46.444Z,73.80
2017-11-14T15:07:15.491Z,74.17
2017-11-14T15:09:44.539Z,74.05
2017-11-14T15:12:15.563Z,77.33
2017-11-14T15:14:47.468Z,72.15
2017-11-14T15:17:19.041Z,78.14
2017-11-14T15:19:49.813Z,73.00
2017-11-14T15:22:20.971Z,80.41
2017-11-14T15:24:50.845Z,74.95
2017-11-14T15:27:19.895Z,80.49
2017-11-14T15:29:51.880Z,79.36
2017-11-14T15:32:21.758Z,80.58
2017-11-14T15:34:52.794Z,76.34
2017-11-14T15:37:22.726Z,80.18
2017-11-14T15:39:55.135Z,80.35
2017-11-14T15:42:24.503Z,80.27
2017-11-14T15:44:54.912Z,77.87
2017-11-14T15:47:24.050Z,80.97
2017-11-14T15:49:54.989Z,78.93
2017-11-14T15:52:24.075Z,79.69
2017-11-14T15:54:54.206Z,80.95
2017-11-14T15:57:23.290Z,79.72
2017-11-14T15:59:54.392Z,81.60
2017-11-14T16:02:23.506Z,84.15
2017-11-14T16:04:53.952Z,80.89
2017-11-14T16:07:23.923Z,85.44
2017-11-14T16:09:57.461Z,83.21
2017-11-14T16:12:26.491Z,81.41
2017-11-14T16:14:57.786Z,81.68
2017-11-14T16:17:26.895Z,82.84
2017-11-14T16:19:59.476Z,82.62
2017-11-14T16:22:28.735Z,84.25
2017-11-14T16:24:59.565Z,82.81
2017-11-14T16:27:28.638Z,86.72
2017-11-14T16:30:00.025Z,85.56
2017-11-14T16:45:52.003Z,84.56
2017-11-14T16:48:21.086Z,86.11
2017-11-14T16:50:50.123Z,85.97
2017-11-14T16:53:19.202Z,85.40
2017-11-14T16:55:48.518Z,86.38
2017-11-14T16:58:17.607Z,84.79
2017-11-14T17:00:47.640Z,85.71
2017-11-14T17:05:58.526Z,84.83
2017-11-14T17:08:28.863Z,85.04
2017-11-14T17:10:57.914Z,84.36
2017-11-14T17:13:26.970Z,85.93
2017-11-14T17:15:56.027Z,82.51
2017-11-14T17:18:25.165Z,84.07
2017-11-14T17:20:54.240Z,87.44
2017-11-14T17:23:24.316Z,87.27
2017-11-14T17:25:53.353Z,85.04
2017-11-14T17:28:26.347Z,83.84
2017-11-14T17:30:55.400Z,86.95
2017-11-14T17:33:24.440Z,86.73
2017-11-14T17:35:53.524Z,85.29
2017-11-14T17:38:22.644Z,86.26
2017-11-14T17:40:51.699Z,85.44
2017-11-14T17:43:20.783Z,86.93
2017-11-14T17:45:49.824Z,87.54
2017-11-14T17:48:18.924Z,85.70
2017-11-14T17:50:48.018Z,85.28
2017-11-14T17:53:17.976Z,83.33
2017-11-14T17:55:47.016Z,85.87
2017-11-14T17:58:23.803Z,83.19
2017-11-14T18:00:52.945Z,83.02
2017-11-14T18:03:22.215Z,86.05
2017-11-14T18:05:51.267Z,85.87
2017-11-14T18:08:23.628Z,88.03
2017-11-14T18:10:52.704Z,87.27
2017-11-14T18:13:22.721Z,88.02
2017-11-14T18:18:32.989Z,89.17
2017-11-14T18:21:02.043Z,87.87
2017-11-14T18:23:31.097Z,90.19
2017-11-14T18:26:00.217Z,90.64
2017-11-14T18:28:29.271Z,88.65
2017-11-14T18:30:58.330Z,89.01
2017-11-14T18:33:27.448Z,89.06
2017-11-14T18:35:57.932Z,89.23
2017-11-14T18:41:05.247Z,91.60
2017-11-14T18:43:35.248Z,91.23
2017-11-14T18:46:05.553Z,91.98
2017-11-14T18:48:36.650Z,90.31
2017-11-14T18:51:06.644Z,92.40
2017-11-14T18:53:35.668Z,88.96
2017-11-14T18:56:06.379Z,88.96
2017-11-14T18:58:36.409Z,91.38
2017-11-14T19:01:06.316Z,89.27
2017-11-14T19:03:39.419Z,90.19
2017-11-14T19:06:13.074Z,92.60
2017-11-14T19:11:18.416Z,91.44
2017-11-14T19:13:47.462Z,92.52
2017-11-14T19:16:18.521Z,92.38
2017-11-14T19:18:48.642Z,92.29
2017-11-14T19:21:17.694Z,91.96
2017-11-14T19:23:46.853Z,90.98
2017-11-14T19:26:18.676Z,92.15
2017-11-14T19:28:47.755Z,92.86
2017-11-14T19:31:16.830Z,91.94
2017-11-14T19:33:49.222Z,92.38
2017-11-14T19:36:20.381Z,92.99
2017-11-14T19:38:51.106Z,92.84
2017-11-14T19:41:20.380Z,92.39
2017-11-14T19:46:25.039Z,93.09
2017-11-14T19:48:54.382Z,94.05
2017-11-14T19:51:23.949Z,93.21
2017-11-14T19:53:55.701Z,93.28
2017-11-14T19:56:25.265Z,93.95
2017-11-14T19:58:55.615Z,93.43
2017-11-14T20:01:33.023Z,93.89
2017-11-14T20:04:02.149Z,94.49
2017-11-14T20:06:34.770Z,94.65
2017-11-14T20:09:04.846Z,94.11
2017-11-14T20:11:37.023Z,94.13
2017-11-14T20:14:07.222Z,94.24
2017-11-14T20:21:50.804Z,93.83
2017-11-14T20:24:19.952Z,94.00
2017-11-14T20:26:49.092Z,93.42
2017-11-14T20:29:18.182Z,94.05
2017-11-14T20:31:47.240Z,93.75
2017-11-14T20:34:17.185Z,93.85
2017-11-14T20:36:46.522Z,92.71
2017-11-14T20:39:17.575Z,93.48
2017-11-14T20:41:46.637Z,91.86
2017-11-14T20:44:15.799Z,91.49
2017-11-14T20:46:44.843Z,91.02
2017-11-14T20:49:13.905Z,90.73
2017-11-14T20:51:44.087Z,89.07
2017-11-14T20:54:14.193Z,88.87
2017-11-14T20:56:44.232Z,91.41
2017-11-14T20:59:13.271Z,89.92
2017-11-14T21:04:23.529Z,91.56
2017-11-14T21:06:52.627Z,92.01
2017-11-14T21:09:21.679Z,91.96
2017-11-14T21:11:51.707Z,89.78
2017-11-14T21:14:20.776Z,90.03
2017-11-14T21:16:51.776Z,89.34
2017-11-14T21:19:20.835Z,91.25
2017-11-14T21:21:49.904Z,91.87
2017-11-14T21:26:54.452Z,90.37
2017-11-14T21:29:23.489Z,90.39
2017-11-14T21:31:52.567Z,89.00
2017-11-14T21:34:21.606Z,89.31
2017-11-14T21:36:50.654Z,89.07
2017-11-14T21:39:21.627Z,89.95
2017-11-14T21:41:50.723Z,88.15
2017-11-14T21:44:21.789Z,88.56
2017-11-14T21:46:50.872Z,88.47
2017-11-14T21:49:19.891Z,89.57
2017-11-14T21:51:48.958Z,89.28
2017-11-14T21:54:17.996Z,89.38
2017-11-14T21:56:54.000Z,88.95
2017-11-14T21:59:29.587Z,90.25
2017-11-14T22:04:40.901Z,88.70
2017-11-14T22:07:14.637Z,89.96
2017-11-14T22:09:53.069Z,89.77
2017-11-14T22:12:29.438Z,90.26
2017-11-14T22:15:04.429Z,88.27
2017-11-14T22:17:39.080Z,88.20
2017-11-14T22:20:10.879Z,88.64
2017-11-14T22:22:42.473Z,87.35
2017-11-14T22:25:15.506Z,88.08
2017-11-14T22:27:45.033Z,87.71
2017-11-14T22:30:16.930Z,87.51
2017-11-14T22:32:52.044Z,88.24
2017-11-14T22:38:00.268Z,87.22
2017-11-14T22:43:10.223Z,87.92
2017-11-14T22:48:16.231Z,87.70
2017-11-14T22:50:50.738Z,88.08
2017-11-14T22:53:27.205Z,89.18
2017-11-14T22:55:56.557Z,88.59
2017-11-14T22:58:26.691Z,87.29
2017-11-14T23:00:55.745Z,88.03
2017-11-14T23:03:24.845Z,87.72
2017-11-14T23:05:54.978Z,88.71
2017-11-14T23:08:25.068Z,88.29
2017-11-14T23:10:54.132Z,89.29
2017-11-14T23:13:31.201Z,90.49
2017-11-14T23:16:00.292Z,89.43
2017-11-14T23:18:29.363Z,89.85
2017-11-14T23:20:58.574Z,88.80
2017-11-14T23:23:27.673Z,89.14
2017-11-14T23:26:00.040Z,88.64
2017-11-14T23:28:30.090Z,89.30
2017-11-14T23:30:59.164Z,90.33
2017-11-14T23:33:29.476Z,90.44
2017-11-14T23:35:59.443Z,90.63
2017-11-14T23:38:28.509Z,90.55
2017-11-14T23:40:57.698Z,91.00
2017-11-14T23:43:27.980Z,90.93
2017-11-14T23:45:57.060Z,92.76
2017-11-14T23:48:28.070Z,91.58
2017-11-14T23:50:57.173Z,92.33
2017-11-14T23:53:27.235Z,92.18
2017-11-14T23:55:58.235Z,93.38
2017-11-14T23:58:28.233Z,91.49
